Time;durP1;ratioP1;P1;durP2;ratioP2;P2;SDS_P1;SDS_P2;PMS_P1;PMS_P2;Temp;Humidity;BMP_temperature;BMP_pressure;BME280_temperature;BME280_humidity;BME280_pressure;Samples;Min_cycle;Max_cycle;Signal;HPM_P1;HPM_P2
2022/08/18 00:00:05;;;;;;;794.83;736.97;;;;;;;27.97;42.18;100568.34;686406;28;46308;-61
2022/08/18 00:00:26;;;;;;;793.15;735.28;;;;;;;27.99;41.86;100565.25;684846;28;92140;-59
2022/08/18 00:00:47;;;;;;;795.55;737.65;;;;;;;27.97;41.89;100573.91;686469;28;47431;-59
2022/08/18 00:01:09;;;;;;;804.97;746.85;;;;;;;27.97;42.25;100561.97;687332;28;21561;-58
2022/08/18 00:01:31;;;;;;;787.08;729.45;;;;;;;27.97;42.14;100568.34;686478;28;46181;-60
2022/08/18 00:02:01;;;;;;;790.03;732.22;;;;;;;27.96;42.40;100569.50;685592;28;46507;-59
2022/08/18 00:02:29;;;;;;;794.85;736.97;;;;;;;27.94;41.91;100560.56;683246;28;61133;-61
2022/08/18 00:02:51;;;;;;;790.83;733.03;;;;;;;27.94;42.39;100559.75;684618;28;23444;-60
2022/08/18 00:03:13;;;;;;;791.38;733.58;;;;;;;27.95;41.78;100561.47;684652;28;22425;-59
2022/08/18 00:03:35;;;;;;;790.28;732.47;;;;;;;27.93;41.96;100561.72;683050;28;67506;-61
2022/08/18 00:03:56;;;;;;;791.35;733.58;;;;;;;27.92;41.96;100565.63;684453;28;21560;-60
2022/08/18 00:04:17;;;;;;;791.20;733.40;;;;;;;27.91;41.87;100558.41;684658;28;22390;-60
2022/08/18 00:04:39;;;;;;;793.10;735.30;;;;;;;27.92;42.44;100567.56;684637;28;22467;-60
2022/08/18 00:05:00;;;;;;;792.00;734.15;;;;;;;27.89;42.49;100566.22;683002;28;69335;-60
2022/08/18 00:05:22;;;;;;;796.35;738.42;;;;;;;27.90;42.52;100564.25;684643;28;21548;-60
2022/08/18 00:05:43;;;;;;;782.22;724.65;;;;;;;27.89;42.07;100565.38;684595;28;22393;-61
2022/08/18 00:06:04;;;;;;;781.10;723.58;;;;;;;27.87;42.54;100560.94;686419;28;23744;-61
2022/08/18 00:06:27;;;;;;;798.15;740.22;;;;;;;27.87;42.49;100560.13;686438;28;44565;-61
2022/08/18 00:06:49;;;;;;;796.33;738.42;;;;;;;27.87;42.66;100565.69;684858;28;67315;-60
2022/08/18 00:07:13;;;;;;;793.92;735.90;;;;;;;27.86;42.13;100566.81;686721;28;22367;-61
2022/08/18 00:07:35;;;;;;;803.08;744.97;;;;;;;27.82;42.55;100558.25;684897;28;92626;-59
2022/08/18 00:07:57;;;;;;;800.67;742.58;;;;;;;27.84;42.49;100566.28;686215;28;46374;-61
2022/08/18 00:08:18;;;;;;;785.90;728.22;;;;;;;27.84;42.65;100567.09;686448;28;46309;-58
2022/08/18 00:08:39;;;;;;;788.03;730.33;;;;;;;27.85;42.40;100559.59;687306;28;23377;-61
2022/08/18 00:09:03;;;;;;;793.45;735.65;;;;;;;27.85;42.39;100563.22;687128;28;23499;-59
2022/08/18 00:09:25;;;;;;;796.00;738.10;;;;;;;27.85;42.53;100567.91;684865;28;92210;-61
2022/08/18 00:09:47;;;;;;;802.20;744.13;;;;;;;27.86;42.43;100564.84;686519;28;45296;-61
2022/08/18 00:10:08;;;;;;;793.75;735.85;;;;;;;27.85;42.34;100563.22;683858;28;45319;-58
2022/08/18 00:10:30;;;;;;;798.33;740.38;;;;;;;27.84;42.81;100566.28;684524;28;23473;-60
2022/08/18 00:10:51;;;;;;;791.40;733.63;;;;;;;27.85;42.22;100562.38;685561;28;45257;-61
2022/08/18 00:11:14;;;;;;;795.17;737.22;;;;;;;27.84;42.40;100558.78;687298;28;23471;-59
2022/08/18 00:11:41;;;;;;;798.38;740.40;;;;;;;27.86;42.54;100558.47;685658;28;69540;-59
2022/08/18 00:12:05;;;;;;;797.17;739.20;;;;;;;27.87;42.33;100562.91;681813;28;157655;-60
2022/08/18 00:12:29;;;;;;;788.50;730.72;;;;;;;27.86;42.21;100564.03;683957;28;114970;-60
2022/08/18 00:12:52;;;;;;;786.95;729.25;;;;;;;27.88;42.41;100561.78;685410;28;69473;-59
2022/08/18 00:13:13;;;;;;;800.17;742.17;;;;;;;27.89;42.21;100559.84;686467;28;46387;-58
2022/08/18 00:13:35;;;;;;;796.75;738.80;;;;;;;27.89;42.77;100554.28;686467;28;44344;-59
2022/08/18 00:13:56;;;;;;;791.65;733.83;;;;;;;27.90;42.73;100558.69;687172;28;21529;-61
2022/08/18 00:14:19;;;;;;;802.67;744.58;;;;;;;27.85;42.40;100548.50;686344;28;46357;-60
2022/08/18 00:14:42;;;;;;;795.03;737.17;;;;;;;27.86;42.63;100550.97;685605;28;67476;-59
2022/08/18 00:15:05;;;;;;;791.58;733.75;;;;;;;27.86;42.70;100553.75;686336;28;46397;-61
2022/08/18 00:15:26;;;;;;;796.17;738.20;;;;;;;27.89;42.53;100563.44;685406;28;69448;-61
2022/08/18 00:15:47;;;;;;;794.97;737.07;;;;;;;27.87;42.92;100560.94;686472;28;44399;-61
2022/08/18 00:16:08;;;;;;;804.90;746.72;;;;;;;27.86;42.88;100555.69;686432;28;46365;-62
2022/08/18 00:16:30;;;;;;;793.40;735.55;;;;;;;27.87;42.50;100555.41;687149;28;21324;-60
2022/08/18 00:16:52;;;;;;;789.38;731.65;;;;;;;27.89;42.90;100563.44;687215;28;45354;-61
2022/08/18 00:17:15;;;;;;;788.15;730.35;;;;;;;27.90;42.49;100564.25;688937;28;46284;-61
2022/08/18 00:17:37;;;;;;;795.88;737.92;;;;;;;27.87;42.76;100560.94;689171;28;44375;-60
2022/08/18 00:17:58;;;;;;;793.25;735.45;;;;;;;27.90;42.54;100561.47;682978;28;69451;-60
2022/08/18 00:18:20;;;;;;;794.45;736.58;;;;;;;27.88;42.96;100564.53;684577;28;23599;-61
2022/08/18 00:18:41;;;;;;;790.92;733.13;;;;;;;27.90;42.76;100569.78;684575;28;23447;-61
2022/08/18 00:19:02;;;;;;;803.40;745.33;;;;;;;27.89;42.50;100563.44;684518;28;22389;-61
2022/08/18 00:19:24;;;;;;;789.60;731.92;;;;;;;27.89;42.55;100559.84;685898;28;21314;-60
2022/08/18 00:19:47;;;;;;;795.22;737.38;;;;;;;27.89;42.87;100563.44;685495;28;69440;-61
2022/08/18 00:20:16;;;;;;;800.88;742.85;;;;;;;27.89;42.80;100565.38;685404;28;70287;-61
2022/08/18 00:20:39;;;;;;;790.67;732.88;;;;;;;27.90;42.86;100570.66;682270;28;159273;-61
2022/08/18 00:21:01;;;;;;;805.05;746.88;;;;;;;27.91;42.61;100566.72;684635;28;92378;-64
2022/08/18 00:21:22;;;;;;;797.08;739.17;;;;;;;27.92;42.44;100562.84;686201;28;46282;-61
2022/08/18 00:21:44;;;;;;;794.30;736.40;;;;;;;27.90;42.83;100562.31;686819;28;21464;-61
2022/08/18 00:22:06;;;;;;;789.72;731.97;;;;;;;27.92;42.73;100562.84;689129;28;45222;-62
2022/08/18 00:22:27;;;;;;;795.47;737.65;;;;;;;27.93;42.78;100558.09;689035;28;44362;-62
2022/08/18 00:22:49;;;;;;;803.67;745.58;;;;;;;27.92;42.90;100562.03;689771;28;22378;-61
2022/08/18 00:23:12;;;;;;;793.25;735.42;;;;;;;27.91;43.01;100565.91;689164;28;46408;-62
2022/08/18 00:23:33;;;;;;;796.03;738.20;;;;;;;27.91;42.40;100561.19;688339;28;69468;-61
2022/08/18 00:23:55;;;;;;;798.50;740.58;;;;;;;27.89;43.10;100560.66;684595;28;21541;-59
2022/08/18 00:24:16;;;;;;;795.60;737.70;;;;;;;27.86;42.62;100567.63;683737;28;46329;-61
2022/08/18 00:24:37;;;;;;;791.03;733.25;;;;;;;27.84;43.09;100560.72;684400;28;23803;-61
2022/08/18 00:24:59;;;;;;;784.63;727.03;;;;;;;27.84;42.54;100566.28;684651;28;23477;-61
2022/08/18 00:25:21;;;;;;;784.90;727.35;;;;;;;27.83;43.07;100559.88;685268;28;43965;-61
2022/08/18 00:25:44;;;;;;;800.42;742.42;;;;;;;27.84;43.27;100563.50;686476;28;46756;-59
2022/08/18 00:26:05;;;;;;;793.83;736.00;;;;;;;27.82;42.95;100560.19;685613;28;68459;-60
2022/08/18 00:26:26;;;;;;;792.40;734.60;;;;;;;27.82;42.69;100560.19;686976;28;46358;-61
2022/08/18 00:26:49;;;;;;;804.33;746.22;;;;;;;27.82;42.62;100561.03;686921;28;22221;-61
2022/08/18 00:27:11;;;;;;;794.85;736.85;;;;;;;27.82;42.66;100565.72;686436;28;46417;-61
2022/08/18 00:27:33;;;;;;;810.85;752.50;;;;;;;27.82;42.67;100565.72;687903;28;67483;-60
2022/08/18 00:27:54;;;;;;;798.38;740.38;;;;;;;27.80;43.34;100562.44;690413;28;21474;-61
2022/08/18 00:28:15;;;;;;;790.60;732.78;;;;;;;27.80;43.30;100557.72;689811;28;44400;-60
2022/08/18 00:28:37;;;;;;;786.70;729.00;;;;;;;27.81;43.15;100561.31;688900;28;23473;-60
2022/08/18 00:28:58;;;;;;;785.90;728.20;;;;;;;27.82;42.91;100565.72;686870;28;44402;-61
2022/08/18 00:29:20;;;;;;;785.13;727.53;;;;;;;27.82;43.30;100563.81;687812;28;22392;-61
2022/08/18 00:29:41;;;;;;;790.63;732.92;;;;;;;27.81;42.69;100556.59;687789;28;21532;-61
2022/08/18 00:30:06;;;;;;;792.10;734.30;;;;;;;27.82;43.26;100557.41;686910;28;45275;-63
2022/08/18 00:30:27;;;;;;;783.00;725.40;;;;;;;27.83;42.84;100561.84;684698;28;114787;-60
2022/08/18 00:30:48;;;;;;;788.72;731.03;;;;;;;27.82;43.20;100554.63;687644;28;23344;-59
2022/08/18 00:31:10;;;;;;;795.25;737.33;;;;;;;27.82;43.19;100554.63;687343;28;22540;-60
2022/08/18 00:31:32;;;;;;;796.78;738.85;;;;;;;27.83;43.30;100556.28;687817;28;22422;-60
2022/08/18 00:31:54;;;;;;;801.47;743.38;;;;;;;27.76;42.92;100551.13;687742;28;46346;-60
2022/08/18 00:32:18;;;;;;;806.45;748.22;;;;;;;27.83;43.21;100554.34;689707;28;44142;-60
2022/08/18 00:32:42;;;;;;;791.35;733.55;;;;;;;27.82;42.87;100555.47;688057;28;90089;-60
2022/08/18 00:33:03;;;;;;;791.65;733.85;;;;;;;27.84;42.81;100549.63;687943;28;92383;-60
2022/08/18 00:33:25;;;;;;;784.97;727.38;;;;;;;27.83;43.26;100554.34;689622;28;44364;-61
2022/08/18 00:33:47;;;;;;;784.05;726.50;;;;;;;27.83;43.27;100556.28;690550;28;21482;-61
2022/08/18 00:34:08;;;;;;;789.28;731.58;;;;;;;27.84;43.20;100564.31;689716;28;46345;-59
2022/08/18 00:34:29;;;;;;;784.55;726.95;;;;;;;27.84;43.27;100556.00;690508;28;22341;-60
2022/08/18 00:34:51;;;;;;;790.67;732.95;;;;;;;27.81;42.84;100548.28;689694;28;44364;-60
2022/08/18 00:35:17;;;;;;;794.80;736.90;;;;;;;27.82;43.37;100547.16;689348;28;44139;-60
2022/08/18 00:35:38;;;;;;;790.08;732.38;;;;;;;27.83;42.80;100554.34;687329;28;115924;-60
2022/08/18 00:35:59;;;;;;;797.45;739.47;;;;;;;27.83;42.89;100550.75;690215;28;22360;-61
2022/08/18 00:36:21;;;;;;;804.20;746.00;;;;;;;27.84;42.74;100552.41;689707;28;46518;-60
2022/08/18 00:36:43;;;;;;;789.53;731.72;;;;;;;27.84;43.28;100557.97;688908;28;43770;-61
2022/08/18 00:37:04;;;;;;;783.88;726.15;;;;;;;27.83;43.30;100551.56;688746;28;44387;-61
2022/08/18 00:37:25;;;;;;;786.08;728.38;;;;;;;27.83;42.84;100547.97;690249;28;22403;-61
2022/08/18 00:37:47;;;;;;;793.38;735.58;;;;;;;27.84;42.89;100557.97;690358;28;21290;-59
2022/08/18 00:38:10;;;;;;;792.22;734.38;;;;;;;27.84;43.18;100558.78;689646;28;46289;-60
2022/08/18 00:38:31;;;;;;;792.38;734.60;;;;;;;27.81;42.78;100556.59;688747;28;69453;-60
2022/08/18 00:38:53;;;;;;;786.53;728.90;;;;;;;27.75;43.41;100552.22;690429;28;22406;-61
2022/08/18 00:39:14;;;;;;;789.83;732.08;;;;;;;27.77;43.41;100555.53;687309;28;44365;-61
2022/08/18 00:39:36;;;;;;;792.42;734.63;;;;;;;27.76;43.67;100553.91;687784;28;23557;-61
2022/08/18 00:39:58;;;;;;;784.25;726.65;;;;;;;27.74;43.19;100552.53;687755;28;23499;-61
2022/08/18 00:40:22;;;;;;;786.63;729.03;;;;;;;27.73;43.24;100553.63;686138;28;69275;-61
2022/08/18 00:40:47;;;;;;;791.53;733.72;;;;;;;27.71;43.56;100553.13;685486;28;90497;-60
2022/08/18 00:41:08;;;;;;;781.40;723.80;;;;;;;27.69;43.83;100545.91;684643;28;113410;-61
2022/08/18 00:41:30;;;;;;;789.35;731.63;;;;;;;27.69;43.23;100557.00;686905;28;44153;-61
2022/08/18 00:41:51;;;;;;;792.55;734.65;;;;;;;27.69;43.28;100558.97;686162;28;45329;-60
2022/08/18 00:42:16;;;;;;;786.08;728.38;;;;;;;27.69;43.88;100551.47;687763;28;22414;-61
2022/08/18 00:42:42;;;;;;;784.80;727.10;;;;;;;27.69;43.76;100547.88;684498;28;115020;-61
2022/08/18 00:43:07;;;;;;;782.50;724.95;;;;;;;27.67;43.51;100556.50;683764;28;136535;-61
2022/08/18 00:43:31;;;;;;;788.28;730.60;;;;;;;27.65;43.54;100544.88;684240;28;115577;-61
2022/08/18 00:43:54;;;;;;;780.45;722.95;;;;;;;27.61;43.74;100543.81;685375;28;90329;-61
2022/08/18 00:44:15;;;;;;;785.35;727.75;;;;;;;27.64;43.46;100554.31;686953;28;45350;-61
2022/08/18 00:44:36;;;;;;;787.50;729.80;;;;;;;27.64;43.63;100553.50;686937;28;46373;-61
2022/08/18 00:45:01;;;;;;;781.80;724.33;;;;;;;27.63;43.81;100552.69;687682;28;23274;-60
2022/08/18 00:45:29;;;;;;;786.10;728.50;;;;;;;27.63;44.03;100560.16;686275;28;61581;-61
2022/08/18 00:45:51;;;;;;;789.20;731.43;;;;;;;27.61;43.79;100546.56;685267;28;92095;-60
2022/08/18 00:46:15;;;;;;;795.10;737.20;;;;;;;27.61;43.67;100554.91;686888;28;45217;-60
2022/08/18 00:46:38;;;;;;;793.35;735.50;;;;;;;27.60;44.22;100549.66;685334;28;92150;-60
2022/08/18 00:46:59;;;;;;;795.33;737.33;;;;;;;27.59;43.86;100551.59;687315;28;69180;-62
2022/08/18 00:47:20;;;;;;;798.28;740.17;;;;;;;27.57;44.21;100542.75;690421;28;22196;-57
2022/08/18 00:47:41;;;;;;;792.38;734.58;;;;;;;27.57;44.49;100545.53;690295;28;21578;-56
2022/08/18 00:48:05;;;;;;;783.38;725.78;;;;;;;27.57;44.45;100545.53;689381;28;46232;-56
2022/08/18 00:48:26;;;;;;;779.20;721.78;;;;;;;27.57;44.50;100544.69;688827;28;67517;-57
2022/08/18 00:48:47;;;;;;;783.15;725.55;;;;;;;27.56;44.41;100549.41;690398;28;22424;-55
2022/08/18 00:49:08;;;;;;;791.53;733.73;;;;;;;27.57;44.57;100547.47;689655;28;45354;-59
2022/08/18 00:49:31;;;;;;;792.58;734.80;;;;;;;27.56;44.12;100549.41;689612;28;46207;-59
2022/08/18 00:49:52;;;;;;;793.78;735.97;;;;;;;27.57;43.95;100548.31;689521;28;46326;-55
2022/08/18 00:50:18;;;;;;;787.67;730.03;;;;;;;27.56;44.17;100549.41;690434;28;21537;-54
2022/08/18 00:50:43;;;;;;;796.25;738.35;;;;;;;27.56;44.43;100543.06;686335;28;138186;-58
2022/08/18 00:51:07;;;;;;;806.03;747.85;;;;;;;27.55;44.67;100558.03;687190;28;115085;-57
2022/08/18 00:51:38;;;;;;;793.27;735.50;;;;;;;27.55;44.67;100544.16;681876;28;114999;-57
2022/08/18 00:52:00;;;;;;;786.72;729.05;;;;;;;27.53;44.18;100538.91;680129;28;137793;-57
2022/08/18 00:52:22;;;;;;;784.50;726.95;;;;;;;27.53;44.68;100543.66;684362;28;44535;-56
2022/08/18 00:52:49;;;;;;;785.55;728.00;;;;;;;27.51;44.65;100541.16;684238;28;46457;-59
2022/08/18 00:53:16;;;;;;;787.38;729.78;;;;;;;27.51;44.13;100553.09;681116;28;137731;-58
2022/08/18 00:53:42;;;;;;;788.95;731.33;;;;;;;27.51;44.38;100542.00;680982;28;136326;-55
2022/08/18 00:54:07;;;;;;;786.15;728.50;;;;;;;27.49;44.33;100537.84;680939;28;136846;-57
2022/08/18 00:54:31;;;;;;;783.03;725.53;;;;;;;27.49;44.33;100544.25;681913;28;114857;-59
2022/08/18 00:54:54;;;;;;;779.58;722.13;;;;;;;27.50;44.66;100550.59;683461;28;67371;-58
2022/08/18 00:55:16;;;;;;;782.83;725.22;;;;;;;27.49;44.20;100549.78;682534;28;92027;-58
2022/08/18 00:55:38;;;;;;;786.08;728.35;;;;;;;27.51;44.38;100552.25;684260;28;46278;-54
2022/08/18 00:56:02;;;;;;;798.17;740.17;;;;;;;27.51;44.64;100553.09;684006;28;44380;-56
2022/08/18 00:56:30;;;;;;;800.30;742.20;;;;;;;27.51;44.58;100541.16;684903;28;92558;-54
2022/08/18 00:56:54;;;;;;;787.05;729.30;;;;;;;27.51;44.12;100546.72;681965;28;161028;-55
2022/08/18 00:57:20;;;;;;;795.40;737.40;;;;;;;27.51;44.53;100543.94;684217;28;115074;-57
2022/08/18 00:57:42;;;;;;;786.58;728.88;;;;;;;27.50;44.65;100540.31;686088;28;61352;-57
2022/08/18 00:58:07;;;;;;;784.63;727.00;;;;;;;27.50;44.25;100551.41;686933;28;23389;-56
2022/08/18 00:58:33;;;;;;;787.90;730.20;;;;;;;27.49;44.20;100554.47;683698;28;138592;-59
2022/08/18 00:58:59;;;;;;;788.00;730.30;;;;;;;27.48;44.75;100553.66;683627;28;136200;-58
2022/08/18 00:59:25;;;;;;;784.15;726.50;;;;;;;27.45;44.19;100547.91;684483;28;115081;-56
2022/08/18 00:59:52;;;;;;;787.97;730.28;;;;;;;27.45;44.85;100554.25;683711;28;137815;-58
2022/08/18 01:00:14;;;;;;;788.22;730.53;;;;;;;27.44;44.94;100551.78;683649;28;138103;-58
2022/08/18 01:00:36;;;;;;;787.70;730.00;;;;;;;27.44;44.95;100555.38;687585;28;22421;-56
2022/08/18 01:00:59;;;;;;;785.72;728.08;;;;;;;27.40;44.92;100543.22;686327;28;69226;-58
2022/08/18 01:01:23;;;;;;;786.25;728.60;;;;;;;27.42;44.68;100548.50;686906;28;46355;-57
2022/08/18 01:01:45;;;;;;;790.97;733.22;;;;;;;27.38;45.10;100545.47;683685;28;114896;-58
2022/08/18 01:02:11;;;;;;;781.65;724.15;;;;;;;27.39;44.84;100549.88;685942;28;67526;-59
2022/08/18 01:02:36;;;;;;;782.30;724.72;;;;;;;27.38;44.64;100550.19;684482;28;115418;-59
2022/08/18 01:03:01;;;;;;;778.15;720.72;;;;;;;27.38;45.12;100550.19;684522;28;115501;-58
2022/08/18 01:03:22;;;;;;;791.42;733.67;;;;;;;27.36;45.09;100552.44;684482;28;115062;-58
2022/08/18 01:03:51;;;;;;;793.10;735.28;;;;;;;27.36;44.88;100546.88;686904;28;45069;-57
2022/08/18 01:04:17;;;;;;;811.30;752.90;;;;;;;27.36;45.27;100555.22;683678;28;138095;-57
2022/08/18 01:04:43;;;;;;;784.50;726.90;;;;;;;27.35;44.79;100542.47;684472;28;115112;-58
2022/08/18 01:05:06;;;;;;;787.17;729.45;;;;;;;27.32;45.13;100544.72;683678;28;136398;-59
2022/08/18 01:05:32;;;;;;;787.75;730.03;;;;;;;27.35;45.18;100542.47;685861;28;67319;-57
2022/08/18 01:05:57;;;;;;;799.13;741.13;;;;;;;27.32;44.83;100544.72;683690;28;138051;-55
2022/08/18 01:06:23;;;;;;;805.50;747.25;;;;;;;27.32;44.76;100543.88;684292;28;115128;-56
2022/08/18 01:06:48;;;;;;;790.95;733.08;;;;;;;27.31;44.81;100543.03;683539;28;138181;-54
2022/08/18 01:07:12;;;;;;;800.47;742.28;;;;;;;27.28;44.80;100538.06;686824;28;108747;-57
2022/08/18 01:07:35;;;;;;;793.15;735.28;;;;;;;27.29;45.39;100536.13;687812;28;93021;-57
2022/08/18 01:07:57;;;;;;;790.28;732.42;;;;;;;27.28;44.94;100543.59;688607;28;69363;-57
2022/08/18 01:08:19;;;;;;;788.40;730.60;;;;;;;27.28;45.11;100538.06;689475;28;45031;-55
2022/08/18 01:08:40;;;;;;;801.78;743.67;;;;;;;27.27;45.36;100541.97;689616;28;44084;-55
2022/08/18 01:09:02;;;;;;;793.83;735.90;;;;;;;27.27;45.35;100543.91;689879;28;21554;-58
2022/08/18 01:09:23;;;;;;;788.85;731.08;;;;;;;27.27;45.42;100541.13;689584;28;44127;-59
2022/08/18 01:09:45;;;;;;;796.60;738.70;;;;;;;27.26;44.97;100548.63;689960;28;22372;-59
2022/08/18 01:10:07;;;;;;;789.95;732.15;;;;;;;27.25;44.98;100538.63;689555;28;46427;-58
2022/08/18 01:10:33;;;;;;;801.67;743.57;;;;;;;27.24;45.54;100548.09;689578;28;46364;-54
2022/08/18 01:10:54;;;;;;;790.00;732.20;;;;;;;27.22;45.39;100536.47;686253;28;136347;-57
2022/08/18 01:11:15;;;;;;;785.42;727.72;;;;;;;27.24;45.59;100537.00;690453;28;22358;-58
2022/08/18 01:11:38;;;;;;;784.13;726.42;;;;;;;27.24;45.51;100536.16;689930;28;22438;-56
2022/08/18 01:12:00;;;;;;;792.03;734.13;;;;;;;27.23;45.28;100542.84;688818;28;43032;-58
2022/08/18 01:12:22;;;;;;;781.65;724.05;;;;;;;27.23;45.59;100538.13;689629;28;46292;-56
2022/08/18 01:12:45;;;;;;;791.78;733.90;;;;;;;27.20;45.09;100535.13;688630;28;67488;-56
2022/08/18 01:13:06;;;;;;;783.92;726.25;;;;;;;27.17;45.16;100532.94;688039;28;69131;-53
2022/08/18 01:13:30;;;;;;;801.45;743.35;;;;;;;27.22;45.46;100542.00;690402;28;21543;-55
2022/08/18 01:13:53;;;;;;;790.58;732.75;;;;;;;27.21;45.51;100543.13;687924;28;90325;-58
2022/08/18 01:14:14;;;;;;;787.35;729.65;;;;;;;27.21;45.45;100545.06;688714;28;69210;-58
2022/08/18 01:14:36;;;;;;;792.95;735.08;;;;;;;27.20;45.20;100540.66;690440;28;21414;-57
2022/08/18 01:14:58;;;;;;;795.75;737.78;;;;;;;27.21;45.54;100536.75;689408;28;47114;-56
2022/08/18 01:15:21;;;;;;;802.08;744.00;;;;;;;27.20;45.30;100538.72;689522;28;44443;-57
2022/08/18 01:15:43;;;;;;;797.70;739.70;;;;;;;27.21;45.66;100543.13;688689;28;69445;-57
2022/08/18 01:22:15;;;;;;;781.60;724.00;;;;;;;27.21;45.77;100545.91;684820;28;156222;-56
2022/08/18 01:22:48;;;;;;;810.40;752.03;;;;;;;27.21;45.32;100545.91;686351;28;137916;-57
2022/08/18 01:23:12;;;;;;;796.95;738.90;;;;;;;27.21;45.27;100545.06;686275;28;132686;-56
2022/08/18 01:23:35;;;;;;;786.60;728.95;;;;;;;27.16;45.72;100537.63;687886;28;92310;-58
2022/08/18 01:23:57;;;;;;;791.42;733.58;;;;;;;27.19;45.40;100547.31;688679;28;69417;-57
2022/08/18 01:24:20;;;;;;;793.42;735.60;;;;;;;27.18;45.31;100546.50;688789;28;68425;-58
2022/08/18 01:26:02;;;;;;;787.50;729.80;;;;;;;27.18;45.83;100549.28;686169;28;137402;-57
2022/08/18 01:26:26;;;;;;;796.20;738.30;;;;;;;27.19;45.41;100548.13;688790;28;69513;-57
2022/08/18 01:26:48;;;;;;;795.88;737.92;;;;;;;27.20;45.69;100554.53;687994;28;69421;-57
2022/08/18 01:27:13;;;;;;;790.17;732.22;;;;;;;27.20;45.78;100552.56;688123;28;69132;-58
2022/08/18 01:27:35;;;;;;;789.53;731.72;;;;;;;27.20;45.84;100552.56;687169;28;114522;-58
2022/08/18 01:28:01;;;;;;;794.70;736.80;;;;;;;27.20;45.55;100549.78;689539;28;46419;-55
2022/08/18 01:28:22;;;;;;;787.80;730.03;;;;;;;27.20;45.39;100547.03;687208;28;113361;-58
2022/08/18 01:28:45;;;;;;;788.53;730.83;;;;;;;27.20;45.31;100546.22;689572;28;43760;-57
2022/08/18 01:29:10;;;;;;;785.80;728.10;;;;;;;27.20;45.51;100549.78;689384;28;46327;-58
2022/08/18 01:29:34;;;;;;;792.67;734.75;;;;;;;27.18;45.47;100548.44;686198;28;137995;-58
2022/08/18 01:29:57;;;;;;;802.70;744.55;;;;;;;27.19;45.21;100550.09;687864;28;92111;-58
2022/08/18 01:30:21;;;;;;;787.22;729.47;;;;;;;27.19;45.24;100555.63;688640;28;69313;-55
2022/08/18 01:30:48;;;;;;;796.47;738.50;;;;;;;27.19;45.37;100550.09;687940;28;91861;-56
2022/08/18 01:31:12;;;;;;;799.10;741.00;;;;;;;27.19;45.34;100550.09;685760;28;137835;-59
2022/08/18 01:31:37;;;;;;;794.33;736.42;;;;;;;27.18;45.28;100549.28;687808;28;92088;-57
2022/08/18 01:31:58;;;;;;;799.20;741.13;;;;;;;27.18;45.36;100552.03;686221;28;115145;-57
2022/08/18 01:32:21;;;;;;;784.13;726.53;;;;;;;27.18;45.44;100543.72;689499;28;46346;-56
2022/08/18 01:32:44;;;;;;;797.00;739.00;;;;;;;27.18;45.39;100556.75;688606;28;67485;-56
2022/08/18 01:33:11;;;;;;;807.15;748.95;;;;;;;27.17;45.83;100549.56;688582;28;69322;-58
2022/08/18 01:33:35;;;;;;;800.33;742.28;;;;;;;27.16;45.54;100543.16;686239;28;136381;-56
2022/08/18 01:33:58;;;;;;;790.38;732.53;;;;;;;27.16;45.56;100548.72;687897;28;92305;-59
2022/08/18 01:34:21;;;;;;;811.20;752.80;;;;;;;27.15;45.90;100552.63;688710;28;70167;-56
2022/08/18 01:34:44;;;;;;;803.60;745.45;;;;;;;27.14;45.55;100546.25;688611;28;69460;-57
2022/08/18 01:35:07;;;;;;;794.35;736.45;;;;;;;27.14;45.46;100549.00;687858;28;90971;-58
2022/08/18 01:35:29;;;;;;;803.75;745.55;;;;;;;27.12;45.69;100544.91;688543;28;69251;-57
2022/08/18 01:35:50;;;;;;;805.25;746.95;;;;;;;27.11;45.84;100546.81;690235;28;23483;-56
2022/08/18 01:36:15;;;;;;;800.70;742.55;;;;;;;27.11;46.18;100552.38;690215;28;24483;-59
2022/08/18 01:36:39;;;;;;;806.38;748.08;;;;;;;27.11;45.61;100543.25;687139;28;115317;-54
2022/08/18 01:37:03;;;;;;;791.13;733.17;;;;;;;27.11;46.19;100549.59;681803;28;92226;-56
2022/08/18 01:37:24;;;;;;;796.97;738.88;;;;;;;27.11;46.06;100548.78;684978;28;93059;-57
2022/08/18 01:37:48;;;;;;;793.92;736.00;;;;;;;27.11;45.73;100551.56;687504;28;21505;-58
2022/08/18 01:38:10;;;;;;;792.20;734.30;;;;;;;27.11;45.81;100554.31;685006;28;92687;-58
2022/08/18 01:38:31;;;;;;;789.45;731.65;;;;;;;27.06;45.88;100534.97;686861;28;46305;-57
2022/08/18 01:38:52;;;;;;;805.13;746.88;;;;;;;27.08;46.14;100544.63;687375;28;23510;-56
2022/08/18 01:39:13;;;;;;;803.88;745.67;;;;;;;27.10;46.12;100547.13;689549;28;22448;-57
2022/08/18 01:39:37;;;;;;;787.28;729.53;;;;;;;27.09;45.92;100542.72;686981;28;23379;-57
2022/08/18 01:39:58;;;;;;;792.00;734.10;;;;;;;27.09;46.16;100549.06;685100;28;90746;-55
2022/08/18 01:40:22;;;;;;;807.97;749.67;;;;;;;27.08;45.67;100543.81;687550;28;23499;-57
2022/08/18 01:40:43;;;;;;;803.22;745.10;;;;;;;27.07;46.17;100542.16;685205;28;92333;-57
2022/08/18 01:41:06;;;;;;;807.40;749.05;;;;;;;27.07;46.32;100548.53;685503;28;46330;-57
2022/08/18 01:41:28;;;;;;;808.45;750.15;;;;;;;27.06;46.18;100538.56;683296;28;69360;-56
2022/08/18 01:41:49;;;;;;;803.92;745.72;;;;;;;27.06;45.87;100546.06;682974;28;47432;-56
2022/08/18 01:42:11;;;;;;;793.00;735.08;;;;;;;27.06;45.88;100540.53;685227;28;21552;-58
2022/08/18 01:42:34;;;;;;;789.83;731.95;;;;;;;27.05;45.93;100548.00;684230;28;44262;-55
2022/08/18 01:42:56;;;;;;;804.58;746.30;;;;;;;27.05;46.09;100541.63;683986;28;44380;-57
2022/08/18 01:43:17;;;;;;;792.22;734.28;;;;;;;27.04;46.39;100543.59;683880;28;46318;-57
2022/08/18 01:43:38;;;;;;;787.65;729.92;;;;;;;27.05;46.42;100538.88;684116;28;44382;-58
2022/08/18 01:44:01;;;;;;;790.08;732.17;;;;;;;27.02;46.38;100548.56;684727;28;22398;-58
2022/08/18 01:44:22;;;;;;;796.73;738.70;;;;;;;27.04;45.92;100540.81;684724;28;69502;-56
2022/08/18 01:44:46;;;;;;;793.03;735.22;;;;;;;27.04;46.48;100546.38;687064;28;45233;-55
2022/08/18 01:45:09;;;;;;;804.60;746.30;;;;;;;27.03;46.11;100547.47;685013;28;92438;-57
2022/08/18 01:45:32;;;;;;;791.88;733.97;;;;;;;27.03;46.06;100543.88;686911;28;44372;-55
2022/08/18 01:45:53;;;;;;;797.78;739.78;;;;;;;27.03;46.42;100546.66;685793;28;69435;-53
2022/08/18 01:46:18;;;;;;;800.90;742.75;;;;;;;27.03;46.25;100541.09;686724;28;44407;-56
2022/08/18 01:46:41;;;;;;;812.55;754.15;;;;;;;27.02;46.45;100545.81;685247;28;92240;-56
2022/08/18 01:47:03;;;;;;;801.38;743.17;;;;;;;27.00;46.14;100538.94;685916;28;111177;-58
2022/08/18 01:47:24;;;;;;;801.83;743.65;;;;;;;27.00;46.04;100547.25;690098;28;23424;-57
2022/08/18 01:47:45;;;;;;;786.45;728.75;;;;;;;26.99;46.13;100538.09;692770;28;22491;-56
2022/08/18 01:48:08;;;;;;;794.40;736.50;;;;;;;26.97;46.55;100537.56;691243;28;44381;-57
2022/08/18 01:48:33;;;;;;;799.17;741.08;;;;;;;26.97;46.25;100541.16;688038;28;92228;-54
2022/08/18 01:48:54;;;;;;;801.72;743.53;;;;;;;26.96;46.64;100545.03;687016;28;114557;-58
2022/08/18 01:49:17;;;;;;;798.80;740.67;;;;;;;26.95;46.37;100539.81;689379;28;45147;-57
2022/08/18 01:49:41;;;;;;;810.65;752.25;;;;;;;26.94;46.69;100538.97;689446;28;44371;-57